Time;durP1;ratioP1;P1;durP2;ratioP2;P2;SDS_P1;SDS_P2;PMS_P1;PMS_P2;Temp;Humidity;BMP_temperature;BMP_pressure;BME280_temperature;BME280_humidity;BME280_pressure;Samples;Min_cycle;Max_cycle;Signal;HPM_P1;HPM_P2
2021/03/11 00:01:52;;;;;;;29.40;14.33;;;;;;;;;;10292666;28;20030;-68
2021/03/11 00:06:49;;;;;;;30.43;19.50;;;;;;;;;;10258108;28;20063;-66
2021/03/11 00:11:46;;;;;;;25.87;15.13;;;;;;;;;;10283385;28;20154;-66
2021/03/11 00:16:44;;;;;;;32.77;20.23;;;;;;;;;;10263586;28;20480;-66
2021/03/11 00:21:41;;;;;;;26.90;13.90;;;;;;;;;;10343134;22;20471;-64
2021/03/11 00:26:38;;;;;;;22.87;12.00;;;;;;;;;;10354775;28;21437;-65
2021/03/11 00:31:36;;;;;;;33.87;21.43;;;;;;;;;;10366514;28;20365;-65
2021/03/11 00:36:33;;;;;;;36.87;20.80;;;;;;;;;;10355140;28;20044;-64
2021/03/11 00:41:31;;;;;;;18.10;11.60;;;;;;;;;;10360209;28;20067;-64
2021/03/11 00:46:28;;;;;;;34.43;21.60;;;;;;;;;;10366334;28;20032;-65
2021/03/11 00:51:26;;;;;;;26.53;15.00;;;;;;;;;;10369518;28;20028;-64
2021/03/11 00:56:24;;;;;;;20.77;10.55;;;;;;;;;;10373606;28;20501;-64
2021/03/11 01:01:22;;;;;;;29.97;18.90;;;;;;;;;;10352065;28;20206;-64
2021/03/11 01:06:23;;;;;;;18.55;11.50;;;;;;;;;;10368044;28;20106;-64
2021/03/11 01:11:21;;;;;;;32.00;17.20;;;;;;;;;;10358147;28;20033;-63
2021/03/11 01:16:18;;;;;;;20.17;13.10;;;;;;;;;;10363299;28;20028;-64
2021/03/11 01:21:16;;;;;;;28.23;16.47;;;;;;;;;;10372624;28;20036;-63
2021/03/11 01:26:14;;;;;;;28.40;13.17;;;;;;;;;;10368531;28;20036;-65
2021/03/11 01:31:11;;;;;;;31.00;18.73;;;;;;;;;;10368176;28;20139;-65
2021/03/11 01:36:08;;;;;;;24.13;14.30;;;;;;;;;;10364645;28;20674;-64
2021/03/11 01:41:06;;;;;;;31.40;20.57;;;;;;;;;;10372072;28;20040;-64
2021/03/11 01:46:03;;;;;;;23.20;15.23;;;;;;;;;;10360898;28;20033;-65
2021/03/11 01:51:01;;;;;;;12.77;8.13;;;;;;;;;;10373584;28;20101;-63
2021/03/11 01:55:59;;;;;;;25.40;13.68;;;;;;;;;;10366104;28;20043;-65
2021/03/11 02:00:56;;;;;;;12.60;8.07;;;;;;;;;;10363330;28;20043;-65
2021/03/11 02:05:53;;;;;;;19.83;9.93;;;;;;;;;;10364146;28;20091;-63
2021/03/11 02:10:51;;;;;;;20.20;7.93;;;;;;;;;;10364217;28;20062;-65
2021/03/11 02:15:53;;;;;;;17.47;9.30;;;;;;;;;;10362056;28;20052;-64
2021/03/11 02:21:05;;;;;;;16.02;8.30;;;;;;;;;;10360193;28;20032;-64
2021/03/11 02:26:09;;;;;;;19.27;9.23;;;;;;;;;;10375909;28;20056;-65
2021/03/11 02:31:07;;;;;;;22.73;9.55;;;;;;;;;;10370311;28;20036;-64
2021/03/11 02:36:04;;;;;;;16.63;8.30;;;;;;;;;;10374847;28;20036;-64
2021/03/11 02:41:02;;;;;;;17.40;8.90;;;;;;;;;;10370631;28;20516;-63
2021/03/11 02:45:59;;;;;;;18.90;9.83;;;;;;;;;;10371105;28;20029;-65
2021/03/11 02:50:57;;;;;;;18.43;8.43;;;;;;;;;;10362944;28;20040;-63
2021/03/11 02:55:56;;;;;;;15.90;8.30;;;;;;;;;;10370982;28;20036;-64
2021/03/11 03:00:54;;;;;;;18.60;9.40;;;;;;;;;;10358144;28;20056;-63
2021/03/11 03:05:51;;;;;;;12.50;7.20;;;;;;;;;;10362424;28;20131;-63
2021/03/11 03:10:51;;;;;;;16.88;8.80;;;;;;;;;;10366294;28;20028;-64
2021/03/11 03:15:49;;;;;;;20.35;9.63;;;;;;;;;;10354771;28;20060;-64
2021/03/11 03:20:47;;;;;;;17.45;9.55;;;;;;;;;;10365547;28;20082;-63
2021/03/11 03:25:45;;;;;;;21.52;10.40;;;;;;;;;;10371598;22;20076;-64
2021/03/11 03:30:43;;;;;;;17.92;9.13;;;;;;;;;;10338205;28;20140;-64
2021/03/11 03:35:41;;;;;;;17.20;8.90;;;;;;;;;;10360862;28;20119;-64
2021/03/11 03:40:38;;;;;;;17.70;8.93;;;;;;;;;;10355047;28;20275;-64
2021/03/11 03:45:38;;;;;;;19.67;9.90;;;;;;;;;;10342607;28;20032;-64
2021/03/11 03:50:36;;;;;;;19.98;10.25;;;;;;;;;;10362161;28;20036;-64
2021/03/11 03:55:35;;;;;;;21.83;10.93;;;;;;;;;;10363163;28;20025;-64
2021/03/11 04:00:33;;;;;;;17.88;8.90;;;;;;;;;;10343314;22;20704;-64
2021/03/11 04:05:30;;;;;;;18.40;9.37;;;;;;;;;;10332181;28;20419;-65
2021/03/11 04:10:28;;;;;;;16.73;9.10;;;;;;;;;;10291014;28;20049;-64
2021/03/11 04:15:26;;;;;;;18.90;8.70;;;;;;;;;;10304521;22;20045;-64
2021/03/11 04:20:23;;;;;;;17.07;8.90;;;;;;;;;;10301883;28;20112;-64
2021/03/11 04:25:21;;;;;;;17.93;8.57;;;;;;;;;;10290008;28;20111;-65
2021/03/11 04:30:18;;;;;;;19.20;8.40;;;;;;;;;;10293252;28;20025;-64
2021/03/11 04:35:16;;;;;;;16.33;8.50;;;;;;;;;;10292600;28;20470;-64
2021/03/11 04:40:14;;;;;;;16.27;8.25;;;;;;;;;;10295658;28;20040;-65
2021/03/11 04:45:12;;;;;;;13.25;7.97;;;;;;;;;;10297637;28;20045;-63
2021/03/11 04:50:09;;;;;;;14.83;7.80;;;;;;;;;;10289774;28;20048;-65
2021/03/11 04:55:07;;;;;;;13.27;7.80;;;;;;;;;;10304538;28;20084;-65
2021/03/11 05:00:05;;;;;;;13.87;6.40;;;;;;;;;;10280541;28;20463;-64
2021/03/11 05:05:07;;;;;;;14.63;7.47;;;;;;;;;;10297184;28;20408;-64
2021/03/11 05:10:04;;;;;;;12.20;6.80;;;;;;;;;;10291174;28;20742;-63
2021/03/11 05:15:02;;;;;;;19.47;10.90;;;;;;;;;;10286344;28;20451;-63
2021/03/11 05:19:59;;;;;;;17.83;10.67;;;;;;;;;;10300693;28;20578;-64
2021/03/11 05:24:57;;;;;;;16.17;10.63;;;;;;;;;;10299088;28;20033;-61
2021/03/11 05:29:54;;;;;;;19.97;12.10;;;;;;;;;;10292557;28;20136;-62
2021/03/11 05:34:51;;;;;;;20.33;12.53;;;;;;;;;;10301806;28;20044;-62
2021/03/11 05:39:49;;;;;;;16.33;10.80;;;;;;;;;;10286776;28;20038;-63
2021/03/11 05:44:47;;;;;;;18.10;11.30;;;;;;;;;;10283885;28;20047;-62
2021/03/11 05:49:44;;;;;;;19.37;12.30;;;;;;;;;;10295600;28;20026;-62
2021/03/11 05:54:42;;;;;;;16.50;10.60;;;;;;;;;;10301112;28;20025;-64
2021/03/11 05:59:39;;;;;;;20.77;12.13;;;;;;;;;;10280543;28;20100;-63
2021/03/11 06:04:39;;;;;;;19.63;12.07;;;;;;;;;;10292313;28;20414;-63
2021/03/11 06:09:37;;;;;;;19.98;10.73;;;;;;;;;;10290496;28;20033;-64
2021/03/11 06:14:37;;;;;;;17.00;10.63;;;;;;;;;;10297965;28;20044;-64
2021/03/11 06:19:35;;;;;;;17.38;11.85;;;;;;;;;;10269615;28;20056;-61
2021/03/11 06:24:32;;;;;;;20.90;11.73;;;;;;;;;;10288342;28;20045;-61
2021/03/11 06:29:40;;;;;;;22.63;11.57;;;;;;;;;;10262972;28;20049;-61
2021/03/11 06:34:44;;;;;;;18.08;11.07;;;;;;;;;;10285828;28;20538;-60
2021/03/11 06:39:42;;;;;;;16.60;11.13;;;;;;;;;;10286468;28;20057;-60
2021/03/11 06:44:40;;;;;;;18.42;10.43;;;;;;;;;;10274155;28;20118;-62
2021/03/11 06:50:07;;;;;;;16.77;10.30;;;;;;;;;;10281937;28;20034;-61
2021/03/11 06:55:07;;;;;;;17.00;9.07;;;;;;;;;;10252435;28;20585;-60
2021/03/11 07:00:04;;;;;;;17.35;9.80;;;;;;;;;;10275325;28;20044;-58
2021/03/11 07:05:12;;;;;;;17.80;10.57;;;;;;;;;;10265948;28;20061;-60
2021/03/11 07:10:30;;;;;;;17.30;9.30;;;;;;;;;;10266847;28;20025;-60
2021/03/11 07:15:28;;;;;;;15.48;9.05;;;;;;;;;;10286617;28;20072;-60
2021/03/11 07:20:27;;;;;;;15.45;10.05;;;;;;;;;;10273265;28;20037;-61
2021/03/11 07:25:28;;;;;;;12.65;9.30;;;;;;;;;;10284910;28;20067;-59
2021/03/11 07:30:26;;;;;;;13.75;9.30;;;;;;;;;;10288149;28;20041;-60
2021/03/11 07:35:27;;;;;;;15.10;7.50;;;;;;;;;;10283741;28;20128;-61
2021/03/11 07:40:26;;;;;;;13.95;8.75;;;;;;;;;;10254147;28;20030;-61
2021/03/11 07:45:23;;;;;;;14.38;7.35;;;;;;;;;;10262121;28;20498;-60
2021/03/11 07:50:21;;;;;;;11.40;7.47;;;;;;;;;;10288623;28;20811;-60
2021/03/11 07:55:18;;;;;;;13.00;6.63;;;;;;;;;;10285924;28;20526;-61
2021/03/11 08:00:16;;;;;;;12.27;7.07;;;;;;;;;;10278010;28;20044;-60
2021/03/11 08:05:23;;;;;;;9.20;5.88;;;;;;;;;;10278060;28;20179;-61
2021/03/11 08:10:20;;;;;;;10.48;5.25;;;;;;;;;;10286957;28;20041;-61
2021/03/11 08:15:18;;;;;;;12.67;5.93;;;;;;;;;;10289815;28;20029;-59
2021/03/11 08:20:18;;;;;;;10.47;5.27;;;;;;;;;;10302136;28;20044;-60
2021/03/11 08:25:25;;;;;;;8.70;5.60;;;;;;;;;;10299708;28;20042;-60
2021/03/11 08:30:39;;;;;;;11.65;6.15;;;;;;;;;;10290803;28;20041;-58
2021/03/11 08:35:41;;;;;;;11.48;4.57;;;;;;;;;;10261710;28;20037;-60
2021/03/11 08:40:41;;;;;;;10.35;4.35;;;;;;;;;;10262755;28;20092;-60
2021/03/11 08:45:39;;;;;;;8.80;5.20;;;;;;;;;;10266577;28;20042;-59
2021/03/11 08:50:37;;;;;;;11.97;5.23;;;;;;;;;;10284593;28;20030;-62
2021/03/11 08:55:36;;;;;;;8.73;4.37;;;;;;;;;;10275279;28;20087;-60
2021/03/11 09:00:52;;;;;;;10.35;4.78;;;;;;;;;;10290760;28;20071;-60
2021/03/11 09:05:49;;;;;;;7.40;4.18;;;;;;;;;;10286056;28;20038;-60
2021/03/11 09:10:47;;;;;;;9.43;4.60;;;;;;;;;;10299289;28;20033;-58
2021/03/11 09:15:45;;;;;;;11.60;4.80;;;;;;;;;;10282049;28;20600;-59
2021/03/11 09:20:42;;;;;;;10.23;5.03;;;;;;;;;;10283635;28;20487;-60
2021/03/11 09:25:40;;;;;;;5.60;3.63;;;;;;;;;;10277739;28;20133;-60
2021/03/11 09:30:38;;;;;;;6.07;4.20;;;;;;;;;;10259184;28;20096;-61
2021/03/11 09:35:35;;;;;;;7.32;3.47;;;;;;;;;;10293468;28;20046;-60
2021/03/11 09:40:34;;;;;;;11.33;3.43;;;;;;;;;;10275662;28;20033;-62
2021/03/11 09:45:32;;;;;;;11.52;5.07;;;;;;;;;;10290475;28;20043;-60
2021/03/11 09:50:29;;;;;;;11.60;4.50;;;;;;;;;;10283017;28;20129;-60
2021/03/11 09:55:28;;;;;;;10.57;5.07;;;;;;;;;;10282344;22;20048;-66
2021/03/11 10:00:25;;;;;;;12.82;3.92;;;;;;;;;;10338262;28;20516;-64
2021/03/11 10:05:22;;;;;;;15.03;3.90;;;;;;;;;;10338803;28;20045;-65
2021/03/11 10:10:20;;;;;;;10.60;4.33;;;;;;;;;;10298829;28;20581;-64
2021/03/11 10:15:18;;;;;;;10.80;3.00;;;;;;;;;;10334819;28;20036;-66
2021/03/11 10:20:20;;;;;;;12.88;3.60;;;;;;;;;;10319643;28;20112;-64
2021/03/11 10:25:18;;;;;;;15.93;3.85;;;;;;;;;;10354747;22;20055;-63
2021/03/11 10:30:27;;;;;;;15.35;3.40;;;;;;;;;;10333996;28;20158;-64
2021/03/11 10:35:35;;;;;;;16.45;4.55;;;;;;;;;;10342133;28;20036;-64
2021/03/11 10:40:32;;;;;;;18.77;4.20;;;;;;;;;;10335019;28;20117;-64
2021/03/11 10:45:37;;;;;;;15.50;4.07;;;;;;;;;;10331506;28;20057;-65
2021/03/11 10:50:39;;;;;;;17.30;4.13;;;;;;;;;;10325010;28;20044;-65
2021/03/11 10:55:37;;;;;;;18.92;3.85;;;;;;;;;;10341770;28;20540;-65
2021/03/11 11:00:36;;;;;;;15.23;3.75;;;;;;;;;;10342816;28;20025;-64
2021/03/11 11:05:33;;;;;;;25.15;5.32;;;;;;;;;;10333358;28;20017;-65
2021/03/11 11:10:32;;;;;;;107.33;31.00;;;;;;;;;;10327172;28;20087;-65
2021/03/11 11:15:31;;;;;;;49.63;14.63;;;;;;;;;;10335275;28;20355;-65
2021/03/11 11:20:31;;;;;;;33.65;11.30;;;;;;;;;;10319393;28;20032;-65
2021/03/11 11:25:28;;;;;;;17.23;4.25;;;;;;;;;;10321682;28;20041;-66
2021/03/11 11:30:26;;;;;;;25.53;6.53;;;;;;;;;;10307852;28;20037;-65
2021/03/11 11:35:24;;;;;;;19.58;5.60;;;;;;;;;;10330130;28;20496;-65
2021/03/11 11:40:21;;;;;;;13.70;4.03;;;;;;;;;;10325334;28;20438;-62
2021/03/11 11:45:19;;;;;;;15.47;3.23;;;;;;;;;;10323187;28;20100;-63
2021/03/11 11:50:16;;;;;;;17.30;3.70;;;;;;;;;;10324609;28;20036;-61
2021/03/11 11:55:14;;;;;;;16.30;2.73;;;;;;;;;;10309053;28;20049;-62
2021/03/11 12:00:13;;;;;;;16.97;3.00;;;;;;;;;;10327169;28;20038;-61
2021/03/11 12:05:11;;;;;;;21.48;3.00;;;;;;;;;;10326082;28;20037;-63
2021/03/11 12:10:09;;;;;;;17.58;3.22;;;;;;;;;;10332081;28;20033;-61
2021/03/11 12:15:07;;;;;;;15.52;3.40;;;;;;;;;;10306441;28;20021;-61
2021/03/11 12:20:04;;;;;;;18.77;3.70;;;;;;;;;;10301266;28;20523;-61
2021/03/11 12:25:02;;;;;;;23.33;3.23;;;;;;;;;;10308913;28;20034;-63
2021/03/11 12:30:00;;;;;;;11.30;2.73;;;;;;;;;;10309856;28;20064;-63
2021/03/11 12:34:57;;;;;;;13.40;3.15;;;;;;;;;;10325317;28;20159;-63
2021/03/11 12:39:55;;;;;;;14.73;2.27;;;;;;;;;;10326656;28;20106;-62
2021/03/11 12:44:52;;;;;;;11.17;2.60;;;;;;;;;;10323899;28;20104;-63
2021/03/11 12:49:50;;;;;;;13.77;2.40;;;;;;;;;;10309374;28;20060;-63
2021/03/11 12:54:47;;;;;;;17.90;2.63;;;;;;;;;;10324184;28;20045;-62
2021/03/11 12:59:44;;;;;;;8.77;2.13;;;;;;;;;;10312010;28;20079;-62
2021/03/11 13:04:42;;;;;;;8.53;2.10;;;;;;;;;;10330781;28;20076;-62
2021/03/11 13:09:39;;;;;;;11.47;2.37;;;;;;;;;;10346266;28;20392;-63
2021/03/11 13:14:37;;;;;;;10.20;2.30;;;;;;;;;;10328775;28;20426;-63
2021/03/11 13:19:34;;;;;;;12.03;2.80;;;;;;;;;;10319704;28;20496;-62
2021/03/11 13:24:31;;;;;;;10.23;2.10;;;;;;;;;;10328843;28;20041;-63
2021/03/11 13:29:29;;;;;;;18.67;2.87;;;;;;;;;;10332330;28;20125;-61
2021/03/11 13:34:26;;;;;;;9.23;1.67;;;;;;;;;;10323479;28;20048;-60
2021/03/11 13:39:24;;;;;;;7.80;1.60;;;;;;;;;;10317728;28;20041;-61
2021/03/11 13:44:21;;;;;;;12.07;2.30;;;;;;;;;;10344147;28;20047;-60
2021/03/11 13:49:19;;;;;;;6.83;2.33;;;;;;;;;;10318999;28;20069;-62
2021/03/11 13:54:16;;;;;;;11.90;2.37;;;;;;;;;;10342295;28;20422;-61
2021/03/11 13:59:13;;;;;;;11.00;2.20;;;;;;;;;;10331363;28;20044;-62
2021/03/11 14:04:11;;;;;;;5.70;2.07;;;;;;;;;;10318666;28;20053;-62
2021/03/11 14:09:08;;;;;;;13.90;2.53;;;;;;;;;;10327620;28;20037;-61
2021/03/11 14:14:06;;;;;;;15.37;3.07;;;;;;;;;;10322304;28;20041;-62
2021/03/11 14:19:03;;;;;;;14.17;3.20;;;;;;;;;;10330406;28;20034;-61
2021/03/11 14:24:01;;;;;;;11.87;1.87;;;;;;;;;;10329200;28;20045;-62
2021/03/11 14:28:58;;;;;;;19.27;3.20;;;;;;;;;;10339929;28;20049;-62
2021/03/11 14:33:55;;;;;;;8.07;2.20;;;;;;;;;;10344571;28;20114;-63
2021/03/11 14:38:53;;;;;;;10.27;1.40;;;;;;;;;;10338440;28;20428;-62
2021/03/11 14:43:50;;;;;;;13.63;3.07;;;;;;;;;;10332018;28;20691;-62
2021/03/11 14:48:48;;;;;;;9.77;2.37;;;;;;;;;;10313361;28;20037;-62
2021/03/11 14:53:45;;;;;;;10.33;2.10;;;;;;;;;;10321355;28;20508;-61
2021/03/11 14:58:42;;;;;;;20.60;3.10;;;;;;;;;;10301922;28;20393;-63
2021/03/11 15:03:40;;;;;;;7.40;2.47;;;;;;;;;;10313602;28;20029;-63
2021/03/11 15:08:38;;;;;;;12.43;3.13;;;;;;;;;;10367945;28;20063;-62
2021/03/11 15:13:35;;;;;;;15.33;2.90;;;;;;;;;;10330123;28;20045;-61
2021/03/11 15:18:33;;;;;;;8.07;1.83;;;;;;;;;;10317153;28;20119;-63
2021/03/11 15:23:30;;;;;;;18.50;3.07;;;;;;;;;;10322371;28;20055;-63
2021/03/11 15:28:28;;;;;;;8.00;2.83;;;;;;;;;;10327372;28;20037;-63
2021/03/11 15:33:26;;;;;;;17.92;3.28;;;;;;;;;;10317311;28;20043;-63
2021/03/11 15:38:24;;;;;;;22.47;3.53;;;;;;;;;;10312460;28;20095;-63
2021/03/11 15:43:21;;;;;;;15.53;2.93;;;;;;;;;;10338395;28;20071;-65
2021/03/11 15:48:23;;;;;;;9.30;2.13;;;;;;;;;;10322312;28;20049;-64
2021/03/11 15:53:20;;;;;;;11.55;2.55;;;;;;;;;;10313227;28;20033;-63
2021/03/11 15:58:17;;;;;;;15.60;3.17;;;;;;;;;;10329430;28;20525;-63
2021/03/11 16:03:15;;;;;;;12.93;3.67;;;;;;;;;;10331781;28;20044;-64
2021/03/11 16:08:14;;;;;;;14.32;3.90;;;;;;;;;;10307662;28;20049;-66
2021/03/11 16:13:13;;;;;;;13.40;3.03;;;;;;;;;;10331898;28;20033;-66
2021/03/11 16:18:11;;;;;;;16.60;4.55;;;;;;;;;;10315690;28;20041;-63
2021/03/11 16:23:09;;;;;;;29.10;7.43;;;;;;;;;;10321751;28;20140;-66
2021/03/11 16:28:07;;;;;;;29.42;8.07;;;;;;;;;;10336943;28;20468;-67
2021/03/11 16:33:05;;;;;;;17.53;5.73;;;;;;;;;;10327078;28;20037;-64
2021/03/11 16:38:02;;;;;;;12.63;3.30;;;;;;;;;;10333301;28;20047;-66
2021/03/11 16:42:59;;;;;;;9.97;2.50;;;;;;;;;;10345455;28;20558;-64
2021/03/11 16:47:58;;;;;;;7.43;2.27;;;;;;;;;;10327583;28;20037;-66
2021/03/11 16:52:55;;;;;;;;;;;;;;;;;;10331849;28;20090;-66
2021/03/11 16:57:53;;;;;;;7.47;2.20;;;;;;;;;;10338282;28;19973;-64
2021/03/11 17:02:50;;;;;;;6.67;1.67;;;;;;;;;;10316673;28;20666;-67
2021/03/11 17:07:48;;;;;;;11.37;2.27;;;;;;;;;;10337669;28;20033;-64
2021/03/11 17:12:45;;;;;;;13.57;3.07;;;;;;;;;;10328274;28;20041;-64
2021/03/11 17:17:44;;;;;;;14.03;2.27;;;;;;;;;;10330067;28;20055;-64
2021/03/11 17:22:42;;;;;;;14.07;2.42;;;;;;;;;;10341035;28;20032;-66
2021/03/11 17:27:39;;;;;;;14.93;2.92;;;;;;;;;;10333376;28;20041;-66
2021/03/11 17:32:37;;;;;;;12.40;2.00;;;;;;;;;;10345981;28;20483;-66
2021/03/11 17:37:35;;;;;;;16.23;2.37;;;;;;;;;;10325284;28;20033;-66
2021/03/11 17:42:32;;;;;;;9.07;2.03;;;;;;;;;;10343481;28;20033;-67
2021/03/11 17:47:30;;;;;;;10.70;2.27;;;;;;;;;;10326041;28;20037;-66
2021/03/11 17:52:28;;;;;;;8.13;1.70;;;;;;;;;;10332404;28;20048;-66
2021/03/11 17:57:25;;;;;;;10.05;2.13;;;;;;;;;;10342593;28;20124;-66
2021/03/11 18:02:23;;;;;;;13.17;2.30;;;;;;;;;;10327076;28;20489;-66
2021/03/11 18:07:20;;;;;;;9.53;2.83;;;;;;;;;;10330662;28;20041;-66
2021/03/11 18:12:17;;;;;;;17.63;4.00;;;;;;;;;;10336947;28;20029;-66
2021/03/11 18:17:15;;;;;;;19.90;6.27;;;;;;;;;;10335423;28;20171;-67
2021/03/11 18:22:13;;;;;;;10.35;4.55;;;;;;;;;;10339505;28;20670;-66
2021/03/11 18:27:10;;;;;;;18.00;3.03;;;;;;;;;;10330257;28;20288;-67
2021/03/11 18:32:08;;;;;;;9.97;2.17;;;;;;;;;;10339629;28;20036;-66
2021/03/11 18:37:07;;;;;;;12.77;1.58;;;;;;;;;;10339284;28;20048;-66
2021/03/11 18:42:04;;;;;;;6.97;1.98;;;;;;;;;;10333079;28;20554;-67
2021/03/11 18:47:02;;;;;;;6.13;1.53;;;;;;;;;;10333135;28;20385;-67
2021/03/11 18:51:59;;;;;;;8.43;1.50;;;;;;;;;;10341620;28;20044;-66
2021/03/11 18:56:57;;;;;;;13.53;2.43;;;;;;;;;;10339791;28;20025;-66
2021/03/11 19:01:54;;;;;;;6.70;1.20;;;;;;;;;;10334333;28;20031;-67
2021/03/11 19:06:52;;;;;;;5.20;1.30;;;;;;;;;;10339139;28;20032;-66
2021/03/11 19:11:49;;;;;;;6.70;1.37;;;;;;;;;;10339867;28;20656;-66
2021/03/11 19:16:46;;;;;;;5.87;1.60;;;;;;;;;;10332731;28;20025;-66
2021/03/11 19:21:44;;;;;;;3.53;1.70;;;;;;;;;;10331525;28;20040;-67
2021/03/11 19:26:41;;;;;;;5.07;2.40;;;;;;;;;;10327392;28;20044;-66
2021/03/11 19:31:39;;;;;;;9.43;2.83;;;;;;;;;;10334126;28;20041;-66
2021/03/11 19:36:36;;;;;;;4.07;2.10;;;;;;;;;;10334687;28;20103;-66
2021/03/11 19:41:34;;;;;;;7.27;2.67;;;;;;;;;;10332767;28;20021;-66
2021/03/11 19:46:31;;;;;;;7.67;2.73;;;;;;;;;;10332991;28;20033;-67
2021/03/11 19:51:28;;;;;;;5.07;2.27;;;;;;;;;;10321651;28;20037;-67
2021/03/11 19:56:27;;;;;;;9.27;2.17;;;;;;;;;;10333526;28;20606;-67
2021/03/11 20:01:24;;;;;;;7.57;2.10;;;;;;;;;;10317916;28;20420;-66
2021/03/11 20:06:21;;;;;;;5.30;2.10;;;;;;;;;;10326021;28;20033;-67
2021/03/11 20:11:19;;;;;;;13.33;3.73;;;;;;;;;;10308020;28;20049;-67
2021/03/11 20:16:17;;;;;;;9.60;3.13;;;;;;;;;;10321608;28;20037;-67
2021/03/11 20:21:15;;;;;;;12.50;3.97;;;;;;;;;;10331106;28;20407;-66
2021/03/11 20:26:14;;;;;;;14.03;3.77;;;;;;;;;;10326858;28;20048;-67
2021/03/11 20:31:12;;;;;;;15.02;5.43;;;;;;;;;;10332589;28;20442;-67
2021/03/11 20:36:09;;;;;;;20.70;6.53;;;;;;;;;;10326466;28;20098;-67
2021/03/11 20:41:07;;;;;;;17.37;6.27;;;;;;;;;;10336284;28;20047;-67
2021/03/11 20:46:04;;;;;;;18.93;6.27;;;;;;;;;;10331804;28;20064;-67
2021/03/11 20:51:02;;;;;;;18.07;5.43;;;;;;;;;;10337203;28;20037;-67
2021/03/11 20:55:59;;;;;;;9.50;4.47;;;;;;;;;;10336901;28;20036;-67
2021/03/11 21:00:57;;;;;;;11.00;3.80;;;;;;;;;;10335395;28;20303;-67
2021/03/11 21:05:54;;;;;;;12.53;4.37;;;;;;;;;;10336512;28;20037;-67
2021/03/11 21:10:53;;;;;;;9.87;3.23;;;;;;;;;;10337239;28;20037;-67
2021/03/11 21:15:50;;;;;;;7.40;3.10;;;;;;;;;;10345909;28;20036;-67
2021/03/11 21:20:48;;;;;;;4.73;1.80;;;;;;;;;;10336671;28;20032;-67
2021/03/11 21:25:45;;;;;;;7.60;2.20;;;;;;;;;;10334601;28;20037;-67
2021/03/11 21:30:43;;;;;;;14.75;1.98;;;;;;;;;;10316718;28;20453;-68
2021/03/11 21:35:41;;;;;;;5.87;1.23;;;;;;;;;;10332922;28;20033;-67
2021/03/11 21:40:38;;;;;;;5.37;0.90;;;;;;;;;;10332870;28;20036;-68
2021/03/11 21:45:36;;;;;;;5.33;1.47;;;;;;;;;;10328971;28;20043;-67
2021/03/11 21:50:35;;;;;;;6.83;1.50;;;;;;;;;;10328234;28;20033;-67
2021/03/11 21:55:33;;;;;;;5.78;1.75;;;;;;;;;;10332404;28;20399;-68
2021/03/11 22:00:31;;;;;;;3.38;1.05;;;;;;;;;;10332239;28;20056;-67
2021/03/11 22:05:29;;;;;;;;;;;;;;;;;;10327377;28;20646;-67
2021/03/11 22:10:27;;;;;;;6.05;1.90;;;;;;;;;;10340708;28;19913;-67
2021/03/11 22:15:25;;;;;;;5.72;1.67;;;;;;;;;;10327280;28;20068;-67
2021/03/11 22:20:23;;;;;;;5.67;2.67;;;;;;;;;;10335752;28;20115;-67
2021/03/11 22:25:21;;;;;;;8.13;1.73;;;;;;;;;;10343476;22;20138;-62
2021/03/11 22:30:19;;;;;;;11.63;1.87;;;;;;;;;;10357842;28;20086;-61
2021/03/11 22:35:17;;;;;;;6.18;2.03;;;;;;;;;;10348635;28;20063;-63
2021/03/11 22:40:15;;;;;;;;;;;;;;;;;;10327879;28;20507;-61
2021/03/11 22:45:13;;;;;;;6.50;1.70;;;;;;;;;;10325639;28;19943;-60
2021/03/11 22:50:10;;;;;;;8.83;1.53;;;;;;;;;;10325118;28;20040;-61
2021/03/11 22:55:08;;;;;;;2.27;1.13;;;;;;;;;;10329477;28;20295;-60
2021/03/11 23:00:09;;;;;;;3.37;0.90;;;;;;;;;;10323851;28;20037;-63
2021/03/11 23:05:07;;;;;;;1.30;0.82;;;;;;;;;;10334185;28;20041;-61
2021/03/11 23:10:13;;;;;;;3.20;1.23;;;;;;;;;;10334506;28;20029;-62
2021/03/11 23:15:12;;;;;;;4.88;1.67;;;;;;;;;;10322848;28;20037;-60
2021/03/11 23:20:10;;;;;;;3.55;1.80;;;;;;;;;;10322236;28;20064;-61
2021/03/11 23:25:09;;;;;;;6.07;1.40;;;;;;;;;;10321634;28;20460;-61
2021/03/11 23:30:09;;;;;;;2.67;1.13;;;;;;;;;;10305181;28;20052;-60
2021/03/11 23:35:07;;;;;;;8.30;1.92;;;;;;;;;;10322266;28;20044;-61
2021/03/11 23:40:05;;;;;;;3.97;1.70;;;;;;;;;;10321745;28;20364;-61
2021/03/11 23:45:04;;;;;;;6.30;1.83;;;;;;;;;;10322139;28;20037;-60
2021/03/11 23:50:01;;;;;;;6.32;1.75;;;;;;;;;;10317266;28;20029;-60
2021/03/11 23:54:59;;;;;;;1.53;1.00;;;;;;;;;;10315380;28;20033;-62
2021/03/11 23:59:56;;;;;;;6.77;2.07;;;;;;;;;;10324960;28;20087;-60
